Time;durP1;ratioP1;P1;durP2;ratioP2;P2;SDS_P1;SDS_P2;PMS_P1;PMS_P2;Temp;Humidity;BMP_temperature;BMP_pressure;BME280_temperature;BME280_humidity;BME280_pressure;Samples;Min_cycle;Max_cycle;Signal;HPM_P1;HPM_P2
2022/04/26 03:36:07;;;;;;;22.63;15.60;;;8.10;99.90;;;;;;5023621;28;20203;-57
2022/04/26 03:38:47;;;;;;;22.67;16.27;;;8.20;99.90;;;;;;5022676;28;20192;-58
2022/04/26 03:41:15;;;;;;;22.27;14.43;;;8.20;99.90;;;;;;5023662;28;20515;-57
2022/04/26 03:43:42;;;;;;;21.67;15.40;;;8.10;99.90;;;;;;5023437;28;20204;-57
2022/04/26 03:46:09;;;;;;;20.10;16.60;;;8.20;99.90;;;;;;5023763;28;20201;-58
2022/04/26 03:48:37;;;;;;;18.80;16.00;;;8.10;99.90;;;;;;5023216;28;20274;-57
2022/04/26 03:51:04;;;;;;;22.30;15.80;;;8.00;99.90;;;;;;5023607;28;20219;-58
2022/04/26 03:53:33;;;;;;;21.42;16.88;;;8.10;99.90;;;;;;5023400;28;20377;-57
2022/04/26 03:56:01;;;;;;;21.02;15.35;;;8.10;99.90;;;;;;5023841;28;20204;-56
2022/04/26 03:58:29;;;;;;;19.13;15.90;;;8.10;99.90;;;;;;5022902;28;20211;-56
2022/04/26 04:00:56;;;;;;;21.33;14.77;;;8.20;99.90;;;;;;5023584;28;20204;-57
2022/04/26 04:03:27;;;;;;;23.33;16.83;;;8.20;99.90;;;;;;5054452;28;20195;-59
2022/04/26 04:05:54;;;;;;;21.05;15.05;;;8.20;99.90;;;;;;5056527;28;20199;-58
2022/04/26 04:08:22;;;;;;;17.05;14.27;;;8.20;99.90;;;;;;5046754;28;20227;-58
2022/04/26 04:10:49;;;;;;;18.05;14.20;;;8.30;99.90;;;;;;5055421;28;20230;-58
2022/04/26 04:13:18;;;;;;;18.90;15.45;;;8.30;99.90;;;;;;5042900;28;20203;-57
2022/04/26 04:15:46;;;;;;;20.65;15.65;;;8.30;99.90;;;;;;5041393;28;20234;-57
2022/04/26 04:21:00;;;;;;;20.23;16.55;;;8.30;99.90;;;;;;5022963;28;20208;-56
2022/04/26 04:23:28;;;;;;;18.70;14.75;;;8.30;99.90;;;;;;5044124;28;20318;-57
2022/04/26 04:25:55;;;;;;;22.98;14.15;;;8.30;99.90;;;;;;5051948;28;20199;-58
2022/04/26 04:28:22;;;;;;;19.88;15.48;;;8.40;99.90;;;;;;5042132;28;20239;-58
2022/04/26 04:30:49;;;;;;;17.92;14.77;;;8.40;99.90;;;;;;5050988;28;20200;-56
2022/04/26 04:33:16;;;;;;;22.38;14.95;;;8.50;99.90;;;;;;5040960;28;20204;-59
2022/04/26 04:35:43;;;;;;;23.98;16.17;;;8.60;99.90;;;;;;5037312;28;20243;-55
2022/04/26 04:38:10;;;;;;;18.60;15.02;;;8.50;99.90;;;;;;5039064;28;20201;-55
2022/04/26 04:40:37;;;;;;;17.73;14.68;;;8.40;99.90;;;;;;5032246;28;20527;-57
2022/04/26 04:43:07;;;;;;;18.77;13.85;;;8.40;99.90;;;;;;5034871;28;20280;-57
2022/04/26 04:45:35;;;;;;;17.45;13.15;;;8.40;99.90;;;;;;5033229;28;20200;-57
2022/04/26 04:48:05;;;;;;;17.15;13.23;;;8.20;99.90;;;;;;5038896;28;20410;-56
2022/04/26 04:50:33;;;;;;;14.23;12.05;;;8.20;99.90;;;;;;5024083;28;20221;-57
2022/04/26 04:53:00;;;;;;;15.52;12.20;;;8.30;99.90;;;;;;5042427;28;20533;-58
2022/04/26 04:55:28;;;;;;;22.80;14.63;;;8.30;99.90;;;;;;5049526;28;20258;-59
2022/04/26 04:57:59;;;;;;;18.38;12.18;;;8.40;99.90;;;;;;5058740;28;20407;-58
2022/04/26 05:00:27;;;;;;;17.27;12.27;;;8.30;99.90;;;;;;5025313;28;20217;-56
2022/04/26 05:02:58;;;;;;;17.48;12.85;;;8.40;99.90;;;;;;5038516;28;20196;-57
2022/04/26 05:05:25;;;;;;;16.02;11.65;;;8.50;99.90;;;;;;5044902;28;20191;-57
2022/04/26 05:07:53;;;;;;;12.43;10.70;;;8.40;99.90;;;;;;5049492;28;20200;-57
2022/04/26 05:10:20;;;;;;;18.33;12.02;;;8.60;99.90;;;;;;5041851;28;20539;-57
2022/04/26 05:12:48;;;;;;;13.25;11.70;;;8.70;99.90;;;;;;5041395;28;20431;-58
2022/04/26 05:15:16;;;;;;;15.82;13.23;;;8.90;99.90;;;;;;5036381;28;20399;-57
2022/04/26 05:17:46;;;;;;;15.95;10.48;;;8.80;99.90;;;;;;5035933;28;20197;-57
2022/04/26 05:20:13;;;;;;;13.25;10.85;;;8.90;99.90;;;;;;5041297;28;20453;-59
2022/04/26 05:25:39;;;;;;;15.82;12.10;;;9.10;99.90;;;;;;5042894;28;20214;-57
2022/04/26 05:28:07;;;;;;;14.13;11.95;;;9.10;99.90;;;;;;5046201;28;20254;-58
2022/04/26 05:30:37;;;;;;;15.82;11.57;;;9.00;99.90;;;;;;5041942;28;20262;-56
2022/04/26 05:33:04;;;;;;;17.08;11.52;;;9.10;99.90;;;;;;5044720;28;20196;-56
2022/04/26 05:35:32;;;;;;;14.05;11.75;;;9.20;99.90;;;;;;5041690;28;20200;-56
2022/04/26 05:37:59;;;;;;;23.88;14.38;;;9.20;99.90;;;;;;5041817;28;20254;-57
2022/04/26 05:40:27;;;;;;;16.17;12.30;;;9.20;99.90;;;;;;5045665;28;20277;-58
2022/04/26 05:42:54;;;;;;;16.65;11.30;;;9.20;99.90;;;;;;5041623;28;20207;-56
2022/04/26 05:45:23;;;;;;;15.90;13.30;;;9.20;99.90;;;;;;5040191;28;20509;-58
2022/04/26 05:47:50;;;;;;;18.00;13.40;;;9.50;99.90;;;;;;5041573;28;20266;-58
2022/04/26 05:50:18;;;;;;;14.98;13.35;;;9.70;99.90;;;;;;5041114;28;20240;-57
2022/04/26 05:52:45;;;;;;;21.08;12.95;;;9.80;99.90;;;;;;5041525;28;20204;-58
2022/04/26 05:55:13;;;;;;;14.27;12.77;;;10.20;99.90;;;;;;5041281;28;20228;-57
2022/04/26 05:57:42;;;;;;;13.95;11.38;;;10.40;99.90;;;;;;5045593;28;20209;-57
2022/04/26 06:00:11;;;;;;;13.65;9.65;;;10.40;99.90;;;;;;5041142;28;20230;-57
2022/04/26 06:02:40;;;;;;;12.00;10.45;;;10.30;99.90;;;;;;5047924;28;20196;-57
2022/04/26 06:05:08;;;;;;;13.40;11.15;;;10.20;99.90;;;;;;5042512;28;20201;-55
2022/04/26 06:07:36;;;;;;;20.30;12.23;;;10.20;99.90;;;;;;5059152;28;20242;-56
2022/04/26 06:10:07;;;;;;;13.38;11.20;;;10.30;99.90;;;;;;5041706;28;20270;-57
2022/04/26 06:12:35;;;;;;;11.48;10.25;;;10.60;99.90;;;;;;5040927;28;20235;-56
2022/04/26 06:15:02;;;;;;;14.73;11.25;;;10.80;99.90;;;;;;5035057;28;20912;-57
2022/04/26 06:17:31;;;;;;;12.88;10.15;;;10.90;99.90;;;;;;5031751;28;20204;-58
2022/04/26 06:19:58;;;;;;;11.90;10.68;;;11.10;99.90;;;;;;5035007;28;20268;-57
2022/04/26 06:22:26;;;;;;;11.93;10.55;;;11.00;99.90;;;;;;5033917;28;20202;-56
2022/04/26 06:24:54;;;;;;;10.63;9.43;;;11.10;99.90;;;;;;5036423;28;20241;-59
2022/04/26 06:27:22;;;;;;;11.68;10.35;;;11.00;99.90;;;;;;5029034;28;20210;-57
2022/04/26 06:29:52;;;;;;;12.80;9.63;;;10.90;99.90;;;;;;5034820;28;20244;-58
2022/04/26 06:32:19;;;;;;;16.40;10.52;;;10.90;99.90;;;;;;5040553;28;20211;-58
2022/04/26 06:34:46;;;;;;;12.23;10.68;;;10.90;99.90;;;;;;5062173;28;20222;-57
2022/04/26 06:37:14;;;;;;;11.90;10.70;;;11.40;99.90;;;;;;5049170;28;20205;-58
2022/04/26 06:39:41;;;;;;;15.52;9.82;;;12.30;99.90;;;;;;5047053;28;20223;-58
2022/04/26 06:42:09;;;;;;;15.95;9.65;;;12.60;99.90;;;;;;5045481;28;20211;-58
2022/04/26 06:44:37;;;;;;;12.13;9.60;;;12.30;99.90;;;;;;5040508;28;20207;-57
2022/04/26 06:47:06;;;;;;;12.35;9.52;;;11.50;99.90;;;;;;5040843;28;20203;-56
2022/04/26 06:49:33;;;;;;;11.32;9.40;;;11.00;99.90;;;;;;5040081;28;20224;-57
2022/04/26 06:52:01;;;;;;;12.30;9.73;;;10.90;99.90;;;;;;5040673;28;20198;-58
2022/04/26 06:54:28;;;;;;;11.55;10.20;;;10.90;99.90;;;;;;5039961;28;20206;-58
2022/04/26 06:56:56;;;;;;;10.93;8.55;;;10.90;99.90;;;;;;5040536;28;20199;-56
2022/04/26 06:59:24;;;;;;;16.15;11.25;;;10.60;99.90;;;;;;5040241;28;20230;-56
2022/04/26 07:01:55;;;;;;;14.65;8.68;;;10.40;99.90;;;;;;5040169;28;20230;-57
2022/04/26 07:04:23;;;;;;;11.07;8.65;;;10.60;99.90;;;;;;5040068;28;20572;-57
2022/04/26 07:06:51;;;;;;;8.80;7.93;;;11.40;99.90;;;;;;5039903;28;20528;-58
2022/04/26 07:09:19;;;;;;;12.77;9.75;;;11.70;99.90;;;;;;5040057;28;20230;-57
2022/04/26 07:11:46;;;;;;;9.15;8.23;;;12.00;99.90;;;;;;5040044;28;20260;-57
2022/04/26 07:14:14;;;;;;;12.25;9.10;;;12.70;99.90;;;;;;5040075;28;20199;-58
2022/04/26 07:16:49;;;;;;;8.98;7.95;;;13.80;99.90;;;;;;5039932;28;20478;-56
2022/04/26 07:19:17;;;;;;;9.65;7.75;;;14.00;99.90;;;;;;5040082;28;20223;-57
2022/04/26 07:21:47;;;;;;;11.65;8.10;;;13.70;99.90;;;;;;5040372;28;20438;-56
2022/04/26 07:24:31;;;;;;;7.65;6.78;;;13.80;99.90;;;;;;5039994;28;20239;-58
2022/04/26 07:26:58;;;;;;;11.50;7.78;;;13.80;99.90;;;;;;5040396;28;20199;-58
2022/04/26 07:29:25;;;;;;;13.18;7.30;;;13.40;99.90;;;;;;5039833;28;20542;-57
2022/04/26 07:31:52;;;;;;;6.65;6.05;;;13.60;99.90;;;;;;5039883;28;20199;-58
2022/04/26 07:34:24;;;;;;;7.78;6.90;;;14.20;99.90;;;;;;5039487;28;20214;-57
2022/04/26 07:37:01;;;;;;;7.10;6.45;;;15.00;99.90;;;;;;5040370;28;20267;-57
2022/04/26 07:39:34;;;;;;;11.43;7.40;;;16.90;99.90;;;;;;5039936;28;20589;-58
2022/04/26 07:42:03;;;;;;;8.17;6.63;;;18.70;99.90;;;;;;5040572;28;20463;-55
2022/04/26 07:44:35;;;;;;;9.93;7.07;;;20.30;99.90;;;;;;5039608;28;20410;-57
2022/04/26 07:47:05;;;;;;;8.23;6.07;;;20.70;99.90;;;;;;5040061;28;20407;-58
2022/04/26 07:49:34;;;;;;;7.97;6.57;;;21.40;99.90;;;;;;5039804;28;20446;-59
2022/04/26 07:52:02;;;;;;;9.20;6.73;;;21.90;99.90;;;;;;5040392;28;20755;-60
2022/04/26 07:54:30;;;;;;;11.50;5.90;;;21.60;98.40;;;;;;5039449;28;20419;-57
2022/04/26 07:56:57;;;;;;;10.00;7.27;;;22.10;96.20;;;;;;5039720;28;20425;-58
2022/04/26 07:59:28;;;;;;;6.90;4.83;;;21.30;98.30;;;;;;5039913;28;20441;-58
2022/04/26 08:01:56;;;;;;;6.30;5.67;;;22.60;94.00;;;;;;5042127;28;20472;-57
2022/04/26 08:04:24;;;;;;;6.07;5.43;;;21.90;94.40;;;;;;5040358;28;20435;-55
2022/04/26 08:06:54;;;;;;;6.20;5.60;;;20.00;96.30;;;;;;5039846;28;20441;-55
2022/04/26 08:09:21;;;;;;;11.43;6.23;;;18.30;99.90;;;;;;5041062;28;20711;-56
2022/04/26 08:11:49;;;;;;;7.67;6.20;;;18.60;99.90;;;;;;5043433;28;20498;-55
2022/04/26 08:14:17;;;;;;;7.03;6.13;;;19.80;99.90;;;;;;5043499;28;20450;-58
2022/04/26 08:16:44;;;;;;;6.20;5.60;;;20.20;99.90;;;;;;5043247;28;20429;-55
2022/04/26 08:19:11;;;;;;;5.80;5.30;;;21.70;96.90;;;;;;5043184;28;20778;-56
2022/04/26 08:21:39;;;;;;;6.50;5.20;;;20.70;99.90;;;;;;5042817;28;20789;-55
2022/04/26 08:29:38;;;;;;;6.63;5.93;;;18.60;99.90;;;;;;5042781;28;20504;-57
2022/04/26 08:32:06;;;;;;;11.50;7.07;;;18.80;99.90;;;;;;5042746;28;20425;-59
2022/04/26 08:34:33;;;;;;;6.23;5.33;;;19.80;99.90;;;;;;5042679;28;20433;-57
2022/04/26 08:37:00;;;;;;;5.90;5.27;;;20.30;99.90;;;;;;5043050;28;20448;-58
2022/04/26 08:39:31;;;;;;;11.23;6.23;;;21.60;99.90;;;;;;5042717;28;20431;-56
2022/04/26 08:42:00;;;;;;;12.00;5.60;;;24.40;93.30;;;;;;5043107;28;20789;-57
2022/04/26 08:44:28;;;;;;;11.53;5.73;;;25.20;81.80;;;;;;5042267;28;20446;-58
2022/04/26 08:52:44;;;;;;;5.87;5.37;;;19.10;99.90;;;;;;5042760;28;20723;-55
2022/04/26 08:55:11;;;;;;;7.03;5.40;;;18.40;99.90;;;;;;5042487;28;20429;-56
2022/04/26 08:57:39;;;;;;;9.20;6.17;;;17.90;99.90;;;;;;5042725;28;20403;-58
2022/04/26 09:00:11;;;;;;;6.70;5.40;;;17.70;99.90;;;;;;5042409;28;20432;-55
2022/04/26 09:02:39;;;;;;;8.83;5.50;;;18.10;99.90;;;;;;5042627;28;20410;-54
2022/04/26 09:05:12;;;;;;;5.43;4.83;;;18.50;99.90;;;;;;5042420;28;20754;-57
2022/04/26 09:07:41;;;;;;;5.23;4.73;;;17.90;99.90;;;;;;5042030;28;20494;-57
2022/04/26 09:10:17;;;;;;;10.43;5.40;;;18.30;99.90;;;;;;5042339;28;20631;-54
2022/04/26 09:13:07;;;;;;;6.80;5.30;;;18.40;99.90;;;;;;5042394;28;20749;-55
2022/04/26 09:15:47;;;;;;;5.13;4.63;;;18.90;99.90;;;;;;5041997;28;20429;-57
2022/04/26 09:18:15;;;;;;;5.50;4.57;;;21.80;95.90;;;;;;5042331;28;20805;-57
2022/04/26 09:20:44;;;;;;;5.70;4.60;;;24.30;86.40;;;;;;5042277;28;20434;-55
2022/04/26 09:23:16;;;;;;;8.20;4.77;;;24.40;78.50;;;;;;5042554;28;20433;-57
2022/04/26 09:25:44;;;;;;;4.97;4.27;;;21.40;88.60;;;;;;5042326;28;20446;-57
2022/04/26 09:28:23;;;;;;;6.87;4.63;;;19.10;99.90;;;;;;5042444;28;20473;-54
2022/04/26 09:30:52;;;;;;;4.53;4.00;;;18.30;99.90;;;;;;5042018;28;20674;-56
2022/04/26 09:33:38;;;;;;;5.70;4.23;;;17.80;99.90;;;;;;5041588;28;20774;-55
2022/04/26 09:36:09;;;;;;;4.60;4.20;;;16.10;99.90;;;;;;5042077;28;20494;-57
2022/04/26 09:38:41;;;;;;;4.60;4.20;;;15.20;99.90;;;;;;5041230;28;20558;-56
2022/04/26 09:41:09;;;;;;;5.30;4.80;;;14.60;99.90;;;;;;5040829;28;20214;-57
2022/04/26 09:43:38;;;;;;;4.90;4.50;;;14.60;99.90;;;;;;5037092;28;20205;-55
2022/04/26 09:46:06;;;;;;;4.55;4.13;;;15.00;99.90;;;;;;5041760;28;20210;-56
2022/04/26 09:48:36;;;;;;;6.28;5.68;;;15.40;99.90;;;;;;5041465;28;20206;-53
2022/04/26 09:51:04;;;;;;;5.15;4.65;;;15.90;99.90;;;;;;5027428;28;20231;-57
2022/04/26 09:53:32;;;;;;;4.70;4.20;;;15.80;99.90;;;;;;5021551;28;20475;-56
2022/04/26 09:56:01;;;;;;;3.80;3.40;;;15.40;99.90;;;;;;5021923;28;20201;-56
2022/04/26 09:58:30;;;;;;;3.28;2.97;;;15.00;99.90;;;;;;5026920;28;20192;-56
2022/04/26 10:01:00;;;;;;;4.03;3.60;;;14.80;99.90;;;;;;5041661;28;20209;-54
2022/04/26 10:03:36;;;;;;;4.22;3.88;;;14.90;99.90;;;;;;5041662;28;20554;-56
2022/04/26 10:06:07;;;;;;;4.25;3.85;;;14.80;99.90;;;;;;5041231;28;20232;-57
2022/04/26 10:08:35;;;;;;;5.25;4.75;;;15.20;99.90;;;;;;5041761;28;20193;-55
2022/04/26 10:11:05;;;;;;;4.53;4.22;;;15.10;99.90;;;;;;5041278;28;20220;-55
2022/04/26 10:13:39;;;;;;;4.68;4.25;;;15.00;99.90;;;;;;5041284;28;20197;-56
2022/04/26 10:16:17;;;;;;;5.13;4.70;;;15.00;99.90;;;;;;5031195;28;20204;-56
2022/04/26 10:18:45;;;;;;;4.80;4.25;;;14.80;99.90;;;;;;5021278;28;20264;-54
2022/04/26 10:21:22;;;;;;;4.60;3.90;;;15.50;99.90;;;;;;5036013;28;20206;-55
2022/04/26 10:24:01;;;;;;;4.70;4.30;;;15.90;99.90;;;;;;5036996;28;20242;-56
2022/04/26 10:26:30;;;;;;;3.90;3.50;;;16.30;99.90;;;;;;5043052;28;20200;-55
2022/04/26 10:29:08;;;;;;;5.85;4.47;;;16.40;99.90;;;;;;5037292;28;20444;-55
2022/04/26 10:31:40;;;;;;;4.87;4.37;;;16.20;99.90;;;;;;5038039;28;20467;-56
2022/04/26 10:34:27;;;;;;;9.83;4.90;;;15.90;99.90;;;;;;5039993;28;20482;-56
2022/04/26 10:36:56;;;;;;;3.90;3.60;;;16.10;99.90;;;;;;5033876;28;20470;-57
2022/04/26 10:39:34;;;;;;;7.30;4.10;;;15.40;99.90;;;;;;5034577;28;20217;-56
2022/04/26 10:42:25;;;;;;;4.00;3.70;;;15.60;99.90;;;;;;5038212;28;20436;-56
2022/04/26 10:44:58;;;;;;;4.07;3.73;;;15.90;99.90;;;;;;5047726;28;20199;-57
2022/04/26 10:47:27;;;;;;;6.63;4.90;;;15.60;99.90;;;;;;5045883;28;20488;-56
2022/04/26 10:49:55;;;;;;;4.95;4.45;;;15.40;99.90;;;;;;5053355;28;20275;-55
2022/04/26 10:52:32;;;;;;;4.65;4.22;;;15.10;99.90;;;;;;5040091;28;20431;-56
2022/04/26 10:55:03;;;;;;;4.63;4.30;;;14.70;99.90;;;;;;5040061;28;20204;-57
2022/04/26 10:57:35;;;;;;;4.25;3.85;;;14.70;99.90;;;;;;5040091;28;20506;-54
2022/04/26 11:00:15;;;;;;;5.28;4.80;;;14.90;99.90;;;;;;5040057;28;20224;-57
2022/04/26 11:02:47;;;;;;;4.90;4.38;;;15.20;99.90;;;;;;5040362;28;20200;-56
2022/04/26 11:05:23;;;;;;;4.18;3.63;;;15.30;99.90;;;;;;5040686;28;20200;-55
2022/04/26 11:07:51;;;;;;;5.97;5.13;;;15.30;99.90;;;;;;5040357;28;20291;-55
2022/04/26 11:10:21;;;;;;;4.70;4.28;;;15.30;99.90;;;;;;5037393;28;20227;-56
2022/04/26 11:12:52;;;;;;;4.25;3.85;;;16.10;99.90;;;;;;5051739;28;20202;-55
2022/04/26 11:15:21;;;;;;;4.13;3.72;;;16.70;99.90;;;;;;5060402;28;20204;-53
2022/04/26 11:17:51;;;;;;;4.15;3.83;;;16.40;99.90;;;;;;5060403;28;20201;-55
2022/04/26 11:20:25;;;;;;;4.50;3.78;;;15.60;99.90;;;;;;5059962;28;20228;-54
2022/04/26 11:22:56;;;;;;;8.98;4.80;;;15.40;99.90;;;;;;5060070;28;20446;-56
2022/04/26 11:28:14;;;;;;;4.70;4.07;;;15.20;99.90;;;;;;5058725;28;20200;-56
2022/04/26 11:30:43;;;;;;;5.95;4.60;;;15.60;99.90;;;;;;5059910;28;20216;-57
2022/04/26 11:33:14;;;;;;;5.07;4.57;;;16.00;99.90;;;;;;5059794;28;20212;-54
2022/04/26 11:35:59;;;;;;;4.97;4.20;;;16.10;99.90;;;;;;5043718;28;20202;-56
2022/04/26 11:38:28;;;;;;;3.47;3.17;;;16.20;99.90;;;;;;5038357;28;20380;-54
2022/04/26 11:41:03;;;;;;;3.95;3.50;;;16.10;99.90;;;;;;5039748;28;20304;-54
2022/04/26 11:43:33;;;;;;;3.88;3.42;;;15.90;99.90;;;;;;5041102;28;20323;-53
2022/04/26 11:46:02;;;;;;;8.52;3.90;;;15.60;99.90;;;;;;5036460;28;20289;-55
2022/04/26 11:48:33;;;;;;;3.70;3.40;;;15.30;99.90;;;;;;5043543;28;20202;-56
2022/04/26 11:51:02;;;;;;;3.35;3.15;;;15.50;99.90;;;;;;5044123;28;20770;-57
2022/04/26 11:53:31;;;;;;;5.28;4.18;;;15.90;99.90;;;;;;5043247;28;20520;-55
2022/04/26 11:56:03;;;;;;;5.28;3.83;;;15.80;99.90;;;;;;5044089;28;20200;-56
2022/04/26 11:58:30;;;;;;;14.20;4.90;;;15.60;99.90;;;;;;5043393;28;20197;-55
2022/04/26 12:01:15;;;;;;;5.50;5.00;;;15.50;99.90;;;;;;5043804;28;20209;-54
2022/04/26 12:03:51;;;;;;;5.63;4.40;;;15.70;99.90;;;;;;5043486;28;20352;-56
2022/04/26 12:06:32;;;;;;;4.63;4.30;;;16.10;99.90;;;;;;5043010;28;20570;-54
2022/04/26 12:09:04;;;;;;;3.50;3.20;;;16.70;99.90;;;;;;5043199;28;20677;-56
2022/04/26 12:11:36;;;;;;;3.40;3.20;;;16.30;99.90;;;;;;5042977;28;20533;-56
2022/04/26 12:14:11;;;;;;;5.00;4.40;;;16.60;99.90;;;;;;5043318;28;20427;-55
2022/04/26 12:16:44;;;;;;;3.83;3.53;;;17.10;99.90;;;;;;5042478;28;20530;-56
2022/04/26 12:19:11;;;;;;;3.60;3.30;;;17.50;99.90;;;;;;5042195;28;20451;-55
2022/04/26 12:21:47;;;;;;;4.10;3.70;;;17.10;99.90;;;;;;5043102;28;20440;-57
2022/04/26 12:24:17;;;;;;;3.50;3.20;;;17.10;98.90;;;;;;5043563;28;20429;-54
2022/04/26 12:27:03;;;;;;;2.87;2.67;;;17.00;97.10;;;;;;5043082;28;20689;-56
2022/04/26 12:29:40;;;;;;;3.40;3.10;;;16.60;99.40;;;;;;5042951;28;20463;-56
2022/04/26 12:32:24;;;;;;;3.17;2.97;;;16.00;99.90;;;;;;5043437;28;20791;-55
2022/04/26 12:34:56;;;;;;;3.75;3.45;;;15.70;99.90;;;;;;5046695;28;20424;-54
2022/04/26 12:37:31;;;;;;;7.40;3.88;;;15.50;99.90;;;;;;5049099;28;20260;-53
2022/04/26 12:40:09;;;;;;;3.13;2.92;;;15.30;99.90;;;;;;5049139;28;20216;-55
2022/04/26 12:42:42;;;;;;;3.33;3.03;;;15.40;99.90;;;;;;5049648;28;20266;-56
2022/04/26 12:45:21;;;;;;;3.92;3.63;;;15.50;99.90;;;;;;5043847;28;20204;-56
2022/04/26 12:51:18;;;;;;;4.85;4.35;;;15.40;99.90;;;;;;5042619;28;20221;-56
2022/04/26 12:53:52;;;;;;;5.25;4.10;;;15.60;99.90;;;;;;5042161;28;20520;-55
2022/04/26 12:56:20;;;;;;;5.15;4.65;;;15.60;99.90;;;;;;5042504;28;20280;-55
2022/04/26 12:58:48;;;;;;;7.40;4.80;;;15.50;99.90;;;;;;5041810;28;20226;-57
2022/04/26 13:01:15;;;;;;;4.68;4.28;;;15.60;99.90;;;;;;5042042;28;20208;-56
2022/04/26 13:03:44;;;;;;;6.70;5.30;;;15.40;99.90;;;;;;5041683;28;20206;-57
2022/04/26 13:06:17;;;;;;;6.75;4.45;;;15.30;99.90;;;;;;5040871;28;20231;-55
2022/04/26 13:09:04;;;;;;;5.32;4.00;;;15.40;99.90;;;;;;5041826;28;20216;-54
2022/04/26 13:11:32;;;;;;;4.82;4.43;;;15.20;99.90;;;;;;5041842;28;20461;-56
2022/04/26 13:13:59;;;;;;;5.00;4.50;;;14.90;99.90;;;;;;5041868;28;20204;-57
2022/04/26 13:16:27;;;;;;;4.65;3.47;;;14.90;99.90;;;;;;5042933;28;20262;-58
2022/04/26 13:18:54;;;;;;;6.20;4.88;;;14.80;99.90;;;;;;5047085;28;20266;-54
2022/04/26 13:21:22;;;;;;;7.45;3.88;;;14.90;99.90;;;;;;5032662;28;20201;-56
2022/04/26 13:23:49;;;;;;;5.25;4.85;;;15.00;99.90;;;;;;5021977;28;20376;-55
2022/04/26 13:26:16;;;;;;;4.05;3.47;;;15.10;99.90;;;;;;5023057;28;20403;-55
2022/04/26 13:28:44;;;;;;;4.35;3.10;;;15.30;99.90;;;;;;5022930;28;20245;-54
2022/04/26 13:31:11;;;;;;;7.15;6.00;;;15.30;99.90;;;;;;5030153;28;20229;-56
2022/04/26 13:33:42;;;;;;;5.90;5.05;;;15.20;99.90;;;;;;5035456;28;20216;-54
2022/04/26 13:36:10;;;;;;;7.18;4.80;;;15.20;99.90;;;;;;5029646;28;20426;-54
2022/04/26 13:38:38;;;;;;;4.45;4.05;;;15.20;99.90;;;;;;5024541;28;20260;-58
2022/04/26 13:41:06;;;;;;;13.50;4.07;;;15.40;99.90;;;;;;5022147;28;20207;-53
2022/04/26 13:43:33;;;;;;;5.25;4.68;;;15.60;99.90;;;;;;5033014;28;20208;-56
2022/04/26 13:46:15;;;;;;;4.53;4.13;;;15.50;99.90;;;;;;5031755;28;20546;-56
2022/04/26 13:48:42;;;;;;;4.78;4.35;;;15.50;99.90;;;;;;5028506;28;20263;-55
2022/04/26 13:51:09;;;;;;;4.22;3.90;;;15.60;99.90;;;;;;5030854;28;20223;-56
2022/04/26 13:53:36;;;;;;;4.82;4.32;;;15.60;99.90;;;;;;5030120;28;20204;-54
2022/04/26 13:56:06;;;;;;;6.30;5.28;;;15.70;99.90;;;;;;5032547;28;20208;-54
2022/04/26 13:58:34;;;;;;;6.93;5.20;;;15.60;99.90;;;;;;5031005;28;20197;-55
2022/04/26 14:01:01;;;;;;;5.15;4.22;;;15.70;99.90;;;;;;5031539;28;20504;-55
2022/04/26 14:03:28;;;;;;;4.25;3.95;;;15.50;99.90;;;;;;5032412;28;20240;-55
2022/04/26 14:05:57;;;;;;;4.88;4.47;;;15.30;99.90;;;;;;5029010;28;20472;-56
2022/04/26 14:08:25;;;;;;;6.03;4.40;;;15.10;99.90;;;;;;5027533;28;20236;-53
2022/04/26 14:10:52;;;;;;;5.18;4.78;;;14.80;99.90;;;;;;5020707;28;20220;-55
2022/04/26 14:13:24;;;;;;;5.68;5.10;;;14.70;99.90;;;;;;5021275;28;20496;-56
2022/04/26 14:24:12;;;;;;;4.78;4.18;;;14.70;99.90;;;;;;5022798;28;20221;-56
2022/04/26 14:26:42;;;;;;;5.50;4.65;;;14.50;99.90;;;;;;5022679;28;20204;-55
2022/04/26 14:29:10;;;;;;;4.85;4.00;;;14.60;99.90;;;;;;5023142;28;20479;-57
2022/04/26 14:31:43;;;;;;;4.95;4.45;;;14.70;99.90;;;;;;5025130;28;20231;-53
2022/04/26 14:34:11;;;;;;;4.75;4.30;;;14.80;99.90;;;;;;5022073;28;20304;-55
2022/04/26 14:36:38;;;;;;;4.00;3.65;;;14.90;99.90;;;;;;5021756;28;20235;-56
2022/04/26 14:39:21;;;;;;;5.07;3.92;;;15.10;99.90;;;;;;5038132;28;20216;-55
2022/04/26 14:41:48;;;;;;;3.95;3.65;;;15.00;99.90;;;;;;5040842;28;20201;-54
2022/04/26 14:44:15;;;;;;;4.40;4.00;;;14.90;99.90;;;;;;5039963;28;20263;-55
2022/04/26 14:46:42;;;;;;;4.00;3.70;;;14.90;99.90;;;;;;5040661;28;20201;-55
2022/04/26 14:49:09;;;;;;;4.95;4.45;;;14.90;99.90;;;;;;5040343;28;20220;-58
2022/04/26 14:51:37;;;;;;;5.13;4.60;;;15.20;99.90;;;;;;5033930;28;20221;-56
2022/04/26 14:54:04;;;;;;;4.55;4.15;;;14.90;99.90;;;;;;5031783;28;20212;-55
2022/04/26 14:56:31;;;;;;;5.00;4.60;;;14.60;99.90;;;;;;5053748;28;20202;-55
2022/04/26 14:59:18;;;;;;;5.85;4.40;;;14.40;99.90;;;;;;5049252;28;20309;-56
2022/04/26 15:01:48;;;;;;;4.65;4.03;;;14.30;99.90;;;;;;5036620;28;20245;-56
2022/04/26 15:04:17;;;;;;;6.55;4.30;;;14.20;99.90;;;;;;5046547;28;20456;-55
2022/04/26 15:06:44;;;;;;;4.55;4.15;;;14.00;99.90;;;;;;5045472;28;20220;-57
2022/04/26 15:17:31;;;;;;;5.20;4.22;;;13.60;99.90;;;;;;5050645;28;20228;-56
2022/04/26 15:20:01;;;;;;;6.15;3.70;;;13.60;99.90;;;;;;5054411;28;20220;-54
2022/04/26 15:22:30;;;;;;;4.72;3.88;;;13.70;99.90;;;;;;5048921;28;20200;-56
2022/04/26 15:24:57;;;;;;;4.50;3.90;;;13.70;99.90;;;;;;5050309;28;20566;-56
2022/04/26 15:27:25;;;;;;;5.82;3.95;;;13.80;99.90;;;;;;5050981;28;20208;-57
2022/04/26 15:29:52;;;;;;;4.88;4.43;;;13.90;99.90;;;;;;5046804;28;20562;-54
2022/04/26 15:32:23;;;;;;;5.65;5.05;;;14.10;99.90;;;;;;5050571;28;20223;-54
2022/04/26 15:34:50;;;;;;;11.60;5.40;;;14.30;99.90;;;;;;5048302;28;20222;-54
2022/04/26 15:37:18;;;;;;;5.18;4.43;;;14.30;99.90;;;;;;5045990;28;20442;-54
2022/04/26 15:39:47;;;;;;;11.02;6.75;;;14.50;99.90;;;;;;5052368;28;20258;-55
2022/04/26 15:42:17;;;;;;;5.75;5.15;;;14.80;99.90;;;;;;5055072;28;20458;-54
2022/04/26 15:44:46;;;;;;;5.57;4.97;;;14.90;99.90;;;;;;5054980;28;20495;-55
2022/04/26 15:47:13;;;;;;;8.77;5.88;;;14.70;99.90;;;;;;5063834;28;20266;-57
2022/04/26 15:49:40;;;;;;;4.18;3.70;;;14.50;99.90;;;;;;5063827;28;20453;-56
2022/04/26 15:52:08;;;;;;;6.80;5.13;;;14.30;99.90;;;;;;5059722;28;20538;-55
2022/04/26 15:54:36;;;;;;;7.60;5.80;;;14.10;99.90;;;;;;5051331;28;20203;-55
2022/04/26 15:57:04;;;;;;;5.47;4.95;;;14.10;99.90;;;;;;5061090;28;20211;-54
2022/04/26 15:59:31;;;;;;;3.75;3.50;;;14.00;99.90;;;;;;5063692;28;20283;-54
2022/04/26 16:01:58;;;;;;;4.82;4.35;;;14.10;99.90;;;;;;5063777;28;20199;-55
2022/04/26 16:04:26;;;;;;;9.20;4.72;;;14.20;99.90;;;;;;5063386;28;20558;-54
2022/04/26 16:06:53;;;;;;;5.93;5.15;;;14.20;99.90;;;;;;5062355;28;20207;-55
2022/04/26 16:20:30;;;;;;;4.90;3.90;;;14.00;99.90;;;;;;5034958;28;20311;-54
2022/04/26 16:23:03;;;;;;;5.35;3.78;;;13.90;99.90;;;;;;5040303;28;20208;-52
2022/04/26 16:25:31;;;;;;;7.95;4.90;;;13.80;99.90;;;;;;5044551;28;20200;-55
2022/04/26 16:28:01;;;;;;;6.03;4.25;;;13.90;99.90;;;;;;5041995;28;20204;-55
2022/04/26 16:30:32;;;;;;;7.40;4.22;;;13.80;99.90;;;;;;5041793;28;20220;-54
2022/04/26 16:33:04;;;;;;;4.32;3.53;;;13.80;99.90;;;;;;5042874;28;20232;-55
2022/04/26 16:35:32;;;;;;;3.90;3.55;;;13.70;99.90;;;;;;5042972;28;20537;-53
2022/04/26 16:37:59;;;;;;;5.68;4.10;;;13.80;99.90;;;;;;5043381;28;20196;-54
2022/04/26 16:40:28;;;;;;;9.13;4.43;;;13.80;99.90;;;;;;5041489;28;20220;-56
2022/04/26 16:42:55;;;;;;;5.55;4.00;;;13.70;99.90;;;;;;5042370;28;20268;-56
2022/04/26 16:45:23;;;;;;;4.40;3.67;;;13.70;99.90;;;;;;5041911;28;20418;-53
2022/04/26 16:47:52;;;;;;;4.25;3.95;;;13.80;99.90;;;;;;5042649;28;20203;-57
2022/04/26 16:50:20;;;;;;;6.00;5.18;;;13.90;99.90;;;;;;5042521;28;20620;-57
2022/04/26 16:52:49;;;;;;;5.72;4.80;;;13.90;99.90;;;;;;5042640;28;20401;-56
2022/04/26 16:55:17;;;;;;;4.82;4.43;;;13.90;99.90;;;;;;5038458;28;20193;-56
2022/04/26 16:57:45;;;;;;;7.43;4.07;;;13.90;99.90;;;;;;5042257;28;20223;-55
2022/04/26 17:00:16;;;;;;;4.78;4.38;;;13.90;99.90;;;;;;5042597;28;20216;-58
2022/04/26 17:02:43;;;;;;;5.30;4.78;;;13.80;99.90;;;;;;5042358;28;20200;-56
2022/04/26 17:05:14;;;;;;;7.07;4.50;;;13.70;99.90;;;;;;5042535;28;20200;-55
2022/04/26 17:07:51;;;;;;;4.20;3.88;;;13.60;99.90;;;;;;5041951;28;20207;-54
2022/04/26 17:10:18;;;;;;;4.18;3.80;;;13.60;99.90;;;;;;5041940;28;20219;-55
2022/04/26 17:12:49;;;;;;;6.53;4.20;;;13.50;99.90;;;;;;5042217;28;20219;-58
2022/04/26 17:15:18;;;;;;;5.15;4.35;;;13.60;99.90;;;;;;5042583;28;20258;-56
2022/04/26 17:17:45;;;;;;;5.00;4.50;;;13.60;99.90;;;;;;5042179;28;20200;-56
2022/04/26 17:20:13;;;;;;;6.03;5.43;;;13.80;99.90;;;;;;5041724;28;20216;-57
2022/04/26 17:22:43;;;;;;;8.93;6.00;;;13.80;99.90;;;;;;5055245;28;20226;-54